Sargent, Texas
Current Conditions -  °F | °C
As of 12:15 PM on Thursday 29 Jan 2015 (Local Time) from KBYY Reporting Station
Scattered Clouds Scattered Clouds  
Wind Chill: 73°   Ceiling: Unl
Heat Index: 73°   Visibility: 10mi
Dew Point: 62°   Wind: 6mph
Humidity: 67%   Direction: 200°SSW
Pressure: 30.24"   Gusts: NA
Location:  28.8997°N, 95.7887°W
Report Text: KBYY 291815Z AUTO 20005KT 10SM SCT028 SCT032 23/16 A3024 RMK AO2 T02270164
Loading
Personal Weather Stations






























Interactive Weather Map New forecast layout! Learn more

10-Day Weather Forecast

Advertisements
Track Severe Weather on mobile